createdAt,value
2018-11-22T12:16:54.262Z,65.57
2018-11-22T12:19:26.700Z,56.17
2018-11-22T12:21:57.894Z,53.33
2018-11-22T12:24:31.696Z,50.60
2018-11-22T12:27:02.329Z,68.83
2018-11-22T12:29:32.937Z,58.63
2018-11-22T12:32:09.683Z,52.13
2018-11-22T12:34:45.652Z,56.50
2018-11-22T12:37:22.080Z,54.50
2018-11-22T12:39:52.622Z,50.90
2018-11-22T12:42:24.519Z,54.20
2018-11-22T12:45:03.771Z,59.67
2018-11-22T12:47:38.010Z,58.83
2018-11-22T12:50:11.058Z,59.80
2018-11-22T12:52:56.135Z,59.13
2018-11-22T12:55:37.724Z,67.83
2018-11-22T12:58:09.782Z,66.73
2018-11-22T13:03:31.790Z,77.40
2018-11-22T13:06:03.437Z,71.63
2018-11-22T13:08:34.050Z,59.10
2018-11-22T13:11:05.187Z,67.20
2018-11-22T13:13:35.969Z,66.97
2018-11-22T13:16:06.554Z,70.03
2018-11-22T13:18:37.357Z,85.40
2018-11-22T13:21:08.201Z,81.97
2018-11-22T13:23:40.440Z,65.63
2018-11-22T13:26:12.029Z,61.33
2018-11-22T13:28:44.934Z,66.90
2018-11-22T13:31:16.708Z,66.00
2018-11-22T13:33:47.674Z,71.30
2018-11-22T13:36:23.654Z,74.60
2018-11-22T13:38:56.934Z,68.37
2018-11-22T13:41:30.912Z,71.87
2018-11-22T13:44:06.050Z,89.03
2018-11-22T13:46:38.333Z,90.57
2018-11-22T13:49:11.186Z,75.57
2018-11-22T13:51:42.104Z,77.80
2018-11-22T13:54:15.360Z,77.50
2018-11-22T13:56:48.868Z,77.63
2018-11-22T13:59:21.097Z,74.17
2018-11-22T14:01:53.253Z,73.27
2018-11-22T14:04:23.960Z,68.97
2018-11-22T14:06:55.101Z,77.57
2018-11-22T14:09:25.933Z,86.83
2018-11-22T14:11:57.099Z,76.93
2018-11-22T14:14:29.239Z,72.97
2018-11-22T14:17:01.010Z,69.07
2018-11-22T14:19:32.213Z,69.43
2018-11-22T14:22:04.127Z,75.57
2018-11-22T14:24:35.311Z,78.67
2018-11-22T14:27:07.155Z,91.10
2018-11-22T14:29:38.231Z,91.80
2018-11-22T14:32:10.271Z,71.83
2018-11-22T14:34:41.820Z,82.67
2018-11-22T14:37:12.364Z,82.00
2018-11-22T14:39:42.735Z,92.43
2018-11-22T14:42:13.870Z,90.33
2018-11-22T14:44:44.463Z,85.33
2018-11-22T14:47:15.046Z,109.67
2018-11-22T14:49:45.741Z,96.60
2018-11-22T14:52:16.455Z,89.77
2018-11-22T14:54:46.996Z,85.63
2018-11-22T14:57:23.170Z,94.77
2018-11-22T14:59:53.764Z,87.90
2018-11-22T15:02:24.551Z,93.23
2018-11-22T15:04:57.375Z,105.37
2018-11-22T15:07:29.280Z,108.50
2018-11-22T15:10:01.259Z,100.27
2018-11-22T15:12:32.382Z,91.60
2018-11-22T15:15:04.672Z,106.43
2018-11-22T15:17:36.795Z,97.57
2018-11-22T15:20:09.423Z,97.97
2018-11-22T15:22:41.462Z,94.47
2018-11-22T15:25:19.970Z,96.03
2018-11-22T15:27:59.544Z,105.60
2018-11-22T15:30:35.736Z,101.50
2018-11-22T15:33:08.246Z,93.10
2018-11-22T15:35:41.598Z,100.20
2018-11-22T15:38:12.704Z,96.77
2018-11-22T15:40:43.678Z,103.83
2018-11-22T15:43:16.624Z,106.40
2018-11-22T15:45:47.639Z,112.87
2018-11-22T15:48:20.506Z,104.77
2018-11-22T15:50:52.519Z,105.83
2018-11-22T15:53:24.507Z,115.73
2018-11-22T15:55:55.443Z,107.13
2018-11-22T15:58:28.867Z,110.30
2018-11-22T16:01:02.599Z,119.33
2018-11-22T16:03:35.411Z,117.70
2018-11-22T16:06:07.416Z,113.67
2018-11-22T16:08:39.909Z,128.83
2018-11-22T16:11:14.899Z,108.50
2018-11-22T16:13:43.430Z,117.03
2018-11-22T16:16:21.617Z,111.43
2018-11-22T16:18:54.971Z,109.53
2018-11-22T16:21:26.250Z,104.00
2018-11-22T16:24:01.820Z,111.17
2018-11-22T16:26:34.760Z,103.23
2018-11-22T16:29:06.470Z,98.77
2018-11-22T16:31:38.777Z,122.63
2018-11-22T16:34:11.318Z,105.50
2018-11-22T16:36:44.018Z,104.77
2018-11-22T16:39:16.118Z,94.07
2018-11-22T16:41:52.700Z,92.77
2018-11-22T16:44:26.169Z,89.80
2018-11-22T16:46:58.751Z,94.40
2018-11-22T16:49:32.173Z,115.23
2018-11-22T16:52:06.292Z,95.77
2018-11-22T16:54:44.732Z,104.50
2018-11-22T16:57:17.006Z,105.87
2018-11-22T16:59:51.661Z,102.83
2018-11-22T17:02:29.009Z,108.73
2018-11-22T17:05:02.232Z,103.87
2018-11-22T17:07:34.626Z,112.70
2018-11-22T17:10:08.909Z,104.07
2018-11-22T17:12:41.093Z,121.73
2018-11-22T17:15:20.573Z,110.30
2018-11-22T17:18:03.273Z,104.50
2018-11-22T17:20:36.011Z,102.17
2018-11-22T17:23:07.175Z,105.77
2018-11-22T17:25:39.214Z,99.43
2018-11-22T17:28:11.041Z,96.07
2018-11-22T17:30:48.267Z,85.23
2018-11-22T17:33:21.027Z,95.07
2018-11-22T17:35:53.535Z,100.23
2018-11-22T17:38:24.685Z,105.33
2018-11-22T17:40:56.199Z,111.70
2018-11-22T17:43:27.319Z,98.53
2018-11-22T17:46:01.350Z,84.97
2018-11-22T17:48:34.392Z,84.70
2018-11-22T17:51:08.433Z,87.87
2018-11-22T17:53:39.968Z,123.67
2018-11-22T17:56:10.765Z,97.33
2018-11-22T17:58:41.421Z,101.07
2018-11-22T18:01:14.700Z,97.63
2018-11-22T18:03:48.890Z,110.23
2018-11-22T18:06:21.187Z,105.97
2018-11-22T18:08:54.886Z,110.63
2018-11-22T18:11:28.119Z,106.37
2018-11-22T18:13:58.469Z,107.93
2018-11-22T18:16:29.159Z,104.37
2018-11-22T18:19:02.794Z,106.60
2018-11-22T18:21:38.399Z,110.03
2018-11-22T18:24:11.540Z,89.57
2018-11-22T18:26:45.090Z,93.93
2018-11-22T18:29:15.919Z,81.20
2018-11-22T18:31:46.567Z,73.40
2018-11-22T18:34:19.479Z,80.07
2018-11-22T18:36:53.523Z,79.10
2018-11-22T18:39:27.431Z,91.00
2018-11-22T18:42:01.156Z,83.93
2018-11-22T18:44:33.422Z,75.70
2018-11-22T18:47:04.235Z,67.53
2018-11-22T18:49:37.326Z,70.13
2018-11-22T18:52:07.760Z,76.13
2018-11-22T18:54:38.526Z,82.33
2018-11-22T18:57:10.462Z,77.77
2018-11-22T18:59:41.674Z,78.43
2018-11-22T19:02:13.977Z,80.43
2018-11-22T19:04:45.374Z,71.80
2018-11-22T19:07:16.717Z,69.77
2018-11-22T19:09:51.566Z,73.83
2018-11-22T19:12:22.743Z,84.57
2018-11-22T19:14:55.539Z,73.43
2018-11-22T19:17:28.612Z,73.60
2018-11-22T19:20:00.409Z,86.07
2018-11-22T19:22:32.896Z,70.33
2018-11-22T19:25:06.475Z,85.13
2018-11-22T19:27:43.215Z,86.00
2018-11-22T19:30:27.946Z,73.27
2018-11-22T19:33:02.012Z,90.93
2018-11-22T19:35:35.375Z,89.23
2018-11-22T19:38:07.667Z,97.57
2018-11-22T19:40:41.738Z,93.33
2018-11-22T19:43:13.874Z,95.27
2018-11-22T19:45:46.466Z,94.70
2018-11-22T19:48:17.683Z,92.43
2018-11-22T19:50:53.201Z,111.83
2018-11-22T19:53:36.014Z,109.00
2018-11-22T19:56:07.463Z,88.17
2018-11-22T19:58:39.869Z,89.90
2018-11-22T20:01:11.632Z,88.00
2018-11-22T20:03:43.797Z,101.83
2018-11-22T20:06:14.367Z,77.93
2018-11-22T20:08:46.861Z,89.73
2018-11-22T20:11:17.950Z,95.07
2018-11-22T20:13:51.073Z,106.03
2018-11-22T20:16:25.228Z,90.07
2018-11-22T20:18:57.987Z,93.20
2018-11-22T20:21:30.569Z,91.83
2018-11-22T20:24:01.116Z,102.30
2018-11-22T20:26:32.148Z,104.83
2018-11-22T20:29:05.976Z,100.20
2018-11-22T20:31:38.635Z,124.33
2018-11-22T20:34:15.709Z,117.80
2018-11-22T20:36:48.418Z,137.23
2018-11-22T20:39:22.070Z,99.13
2018-11-22T20:41:53.561Z,100.07
2018-11-22T20:44:25.002Z,110.73
2018-11-22T20:46:57.986Z,107.23
2018-11-22T20:49:31.838Z,98.50
2018-11-22T20:52:11.474Z,96.00
2018-11-22T20:54:42.943Z,118.87
2018-11-22T20:57:14.340Z,98.13
2018-11-22T20:59:45.335Z,107.87
2018-11-22T21:02:20.813Z,94.53
2018-11-22T21:04:53.180Z,88.53
2018-11-22T21:07:25.645Z,76.37
2018-11-22T21:09:57.367Z,78.33
2018-11-22T21:12:31.122Z,57.60
2018-11-22T21:15:07.030Z,48.70
2018-11-22T21:17:42.644Z,62.70
2018-11-22T21:20:33.194Z,48.23
2018-11-22T21:23:12.411Z,47.87
2018-11-22T21:25:47.136Z,43.87
2018-11-22T21:28:19.892Z,45.73
2018-11-22T21:30:52.860Z,42.53
2018-11-22T21:33:26.089Z,37.87
2018-11-22T21:38:39.573Z,31.40
2018-11-22T21:41:11.781Z,35.00
2018-11-22T21:43:42.929Z,29.47
2018-11-22T21:46:14.000Z,27.30
2018-11-22T21:48:49.225Z,30.67
2018-11-22T21:51:23.221Z,29.23
2018-11-22T21:54:00.064Z,30.90
2018-11-22T21:56:33.063Z,31.47
2018-11-22T21:59:06.135Z,29.17
2018-11-22T22:01:39.432Z,39.17
2018-11-22T22:04:11.495Z,25.23
2018-11-22T22:06:44.655Z,32.13
2018-11-22T22:09:16.288Z,29.13
2018-11-22T22:11:50.070Z,29.57
2018-11-22T22:14:22.758Z,28.50
2018-11-22T22:16:56.095Z,34.03
2018-11-22T22:19:38.480Z,28.33
2018-11-22T22:22:13.324Z,29.13
2018-11-22T22:24:45.452Z,30.23
2018-11-22T22:27:18.006Z,32.77
2018-11-22T22:29:48.307Z,35.27
2018-11-22T22:32:19.405Z,34.93
2018-11-22T22:34:53.244Z,39.90
2018-11-22T22:37:26.211Z,32.97
2018-11-22T22:40:06.314Z,36.60
2018-11-22T22:42:51.151Z,31.90
2018-11-22T22:45:31.717Z,42.80
2018-11-22T22:48:02.609Z,35.60
2018-11-22T22:50:34.875Z,39.57
2018-11-22T22:53:16.133Z,39.27
2018-11-22T22:55:51.520Z,41.27
2018-11-22T22:58:22.083Z,43.10
2018-11-22T23:01:02.063Z,49.90
2018-11-22T23:03:34.779Z,44.33
2018-11-22T23:06:07.526Z,36.83
2018-11-22T23:08:38.655Z,41.90
2018-11-22T23:11:15.341Z,37.20
2018-11-22T23:13:54.081Z,39.33
2018-11-22T23:16:24.641Z,42.80
2018-11-22T23:19:01.306Z,35.60
2018-11-22T23:21:33.550Z,45.20
2018-11-22T23:24:07.739Z,38.93
2018-11-22T23:26:39.830Z,41.13
2018-11-22T23:29:10.974Z,42.83
2018-11-22T23:31:41.647Z,34.80
2018-11-22T23:34:14.962Z,39.43
2018-11-22T23:36:47.786Z,38.27
2018-11-22T23:39:20.253Z,46.47
2018-11-22T23:41:52.311Z,36.63
2018-11-22T23:44:23.050Z,42.77
2018-11-22T23:46:55.752Z,48.93
2018-11-22T23:49:27.863Z,39.17
2018-11-22T23:51:59.232Z,42.60
2018-11-22T23:54:29.765Z,47.57
2018-11-22T23:57:00.958Z,41.93
2018-11-22T23:59:37.657Z,49.93
